sensor_id;sensor_type;location;lat;lon;timestamp;P1;durP1;ratioP1;P2;durP2;ratioP2
83117;SDS011;73000;51.784;4.660;2023-12-22T00:00:14;12.10;;;2.70;;
83117;SDS011;73000;51.784;4.660;2023-12-22T00:02:43;10.02;;;2.25;;
83117;SDS011;73000;51.784;4.660;2023-12-22T00:05:11;11.45;;;2.10;;
83117;SDS011;73000;51.784;4.660;2023-12-22T00:10:05;15.68;;;2.55;;
83117;SDS011;73000;51.784;4.660;2023-12-22T00:12:30;12.82;;;2.13;;
83117;SDS011;73000;51.784;4.660;2023-12-22T00:15:03;11.50;;;2.50;;
83117;SDS011;73000;51.784;4.660;2023-12-22T00:17:29;16.80;;;2.83;;
83117;SDS011;73000;51.784;4.660;2023-12-22T00:19:55;16.33;;;2.83;;
83117;SDS011;73000;51.784;4.660;2023-12-22T00:22:23;8.80;;;2.20;;
83117;SDS011;73000;51.784;4.660;2023-12-22T00:24:50;9.90;;;3.92;;
83117;SDS011;73000;51.784;4.660;2023-12-22T00:27:15;11.35;;;2.25;;
83117;SDS011;73000;51.784;4.660;2023-12-22T00:29:40;10.55;;;2.53;;
83117;SDS011;73000;51.784;4.660;2023-12-22T00:32:09;14.80;;;3.65;;
83117;SDS011;73000;51.784;4.660;2023-12-22T00:34:37;13.02;;;2.78;;
83117;SDS011;73000;51.784;4.660;2023-12-22T00:37:03;11.02;;;2.45;;
83117;SDS011;73000;51.784;4.660;2023-12-22T00:39:29;8.75;;;2.05;;
83117;SDS011;73000;51.784;4.660;2023-12-22T00:41:55;12.82;;;2.53;;
83117;SDS011;73000;51.784;4.660;2023-12-22T00:44:24;12.65;;;2.47;;
83117;SDS011;73000;51.784;4.660;2023-12-22T00:46:53;11.93;;;2.25;;
83117;SDS011;73000;51.784;4.660;2023-12-22T00:49:19;8.82;;;2.08;;
83117;SDS011;73000;51.784;4.660;2023-12-22T00:51:46;11.23;;;2.25;;
83117;SDS011;73000;51.784;4.660;2023-12-22T00:54:12;5.53;;;1.52;;
83117;SDS011;73000;51.784;4.660;2023-12-22T00:56:37;9.23;;;2.03;;
83117;SDS011;73000;51.784;4.660;2023-12-22T00:59:05;13.57;;;2.60;;
83117;SDS011;73000;51.784;4.660;2023-12-22T01:01:30;13.35;;;3.22;;
83117;SDS011;73000;51.784;4.660;2023-12-22T01:03:56;9.23;;;2.20;;
83117;SDS011;73000;51.784;4.660;2023-12-22T01:06:21;15.90;;;2.13;;
83117;SDS011;73000;51.784;4.660;2023-12-22T01:08:47;12.35;;;2.63;;
83117;SDS011;73000;51.784;4.660;2023-12-22T01:11:17;10.48;;;1.75;;
83117;SDS011;73000;51.784;4.660;2023-12-22T01:13:45;13.55;;;3.00;;
83117;SDS011;73000;51.784;4.660;2023-12-22T01:16:11;14.32;;;2.75;;
83117;SDS011;73000;51.784;4.660;2023-12-22T01:18:36;17.42;;;2.67;;
83117;SDS011;73000;51.784;4.660;2023-12-22T01:21:02;11.05;;;2.25;;
83117;SDS011;73000;51.784;4.660;2023-12-22T01:23:28;11.57;;;2.35;;
83117;SDS011;73000;51.784;4.660;2023-12-22T01:25:53;14.13;;;2.42;;
83117;SDS011;73000;51.784;4.660;2023-12-22T01:28:18;15.27;;;3.03;;
83117;SDS011;73000;51.784;4.660;2023-12-22T01:30:44;8.90;;;2.50;;
83117;SDS011;73000;51.784;4.660;2023-12-22T01:33:09;16.20;;;2.72;;
83117;SDS011;73000;51.784;4.660;2023-12-22T01:35:35;6.68;;;2.13;;
83117;SDS011;73000;51.784;4.660;2023-12-22T01:40:28;11.03;;;2.10;;
83117;SDS011;73000;51.784;4.660;2023-12-22T01:42:54;15.23;;;2.80;;
83117;SDS011;73000;51.784;4.660;2023-12-22T01:45:19;10.10;;;2.33;;
83117;SDS011;73000;51.784;4.660;2023-12-22T01:47:45;11.65;;;2.17;;
83117;SDS011;73000;51.784;4.660;2023-12-22T01:50:12;9.55;;;2.85;;
83117;SDS011;73000;51.784;4.660;2023-12-22T01:52:39;13.57;;;2.88;;
83117;SDS011;73000;51.784;4.660;2023-12-22T01:55:07;34.50;;;12.60;;
83117;SDS011;73000;51.784;4.660;2023-12-22T01:57:39;12.13;;;3.28;;
83117;SDS011;73000;51.784;4.660;2023-12-22T02:00:06;14.20;;;2.72;;
83117;SDS011;73000;51.784;4.660;2023-12-22T02:02:32;12.68;;;2.83;;
83117;SDS011;73000;51.784;4.660;2023-12-22T02:04:58;14.18;;;2.28;;
83117;SDS011;73000;51.784;4.660;2023-12-22T02:07:26;16.38;;;2.63;;
83117;SDS011;73000;51.784;4.660;2023-12-22T02:09:52;11.43;;;2.63;;
83117;SDS011;73000;51.784;4.660;2023-12-22T02:12:17;12.52;;;2.55;;
83117;SDS011;73000;51.784;4.660;2023-12-22T02:14:43;12.63;;;2.55;;
83117;SDS011;73000;51.784;4.660;2023-12-22T02:19:41;12.25;;;2.70;;
83117;SDS011;73000;51.784;4.660;2023-12-22T02:22:11;14.68;;;3.00;;
83117;SDS011;73000;51.784;4.660;2023-12-22T02:24:38;16.40;;;4.40;;
83117;SDS011;73000;51.784;4.660;2023-12-22T02:29:37;12.18;;;2.35;;
83117;SDS011;73000;51.784;4.660;2023-12-22T02:32:14;11.15;;;2.17;;
83117;SDS011;73000;51.784;4.660;2023-12-22T02:34:49;7.10;;;2.10;;
83117;SDS011;73000;51.784;4.660;2023-12-22T02:37:17;6.88;;;2.05;;
83117;SDS011;73000;51.784;4.660;2023-12-22T02:39:43;11.07;;;2.20;;
83117;SDS011;73000;51.784;4.660;2023-12-22T02:42:09;9.30;;;2.33;;
83117;SDS011;73000;51.784;4.660;2023-12-22T02:44:36;6.55;;;2.22;;
83117;SDS011;73000;51.784;4.660;2023-12-22T02:47:06;13.15;;;3.17;;
83117;SDS011;73000;51.784;4.660;2023-12-22T02:49:33;7.88;;;1.80;;
83117;SDS011;73000;51.784;4.660;2023-12-22T02:51:59;17.17;;;2.42;;
83117;SDS011;73000;51.784;4.660;2023-12-22T02:54:24;12.82;;;2.75;;
83117;SDS011;73000;51.784;4.660;2023-12-22T02:56:53;17.23;;;2.97;;
83117;SDS011;73000;51.784;4.660;2023-12-22T02:59:18;9.40;;;2.13;;
83117;SDS011;73000;51.784;4.660;2023-12-22T03:01:44;10.98;;;2.35;;
83117;SDS011;73000;51.784;4.660;2023-12-22T03:04:09;17.13;;;2.30;;
83117;SDS011;73000;51.784;4.660;2023-12-22T03:06:34;10.13;;;2.35;;
83117;SDS011;73000;51.784;4.660;2023-12-22T03:09:00;9.80;;;2.20;;
83117;SDS011;73000;51.784;4.660;2023-12-22T03:11:25;13.57;;;3.85;;
83117;SDS011;73000;51.784;4.660;2023-12-22T03:13:51;6.70;;;1.88;;
83117;SDS011;73000;51.784;4.660;2023-12-22T03:16:16;13.68;;;2.33;;
83117;SDS011;73000;51.784;4.660;2023-12-22T03:18:41;13.50;;;2.35;;
83117;SDS011;73000;51.784;4.660;2023-12-22T03:21:07;12.07;;;2.83;;
83117;SDS011;73000;51.784;4.660;2023-12-22T03:23:32;12.43;;;2.38;;
83117;SDS011;73000;51.784;4.660;2023-12-22T03:25:58;11.20;;;2.20;;
83117;SDS011;73000;51.784;4.660;2023-12-22T03:28:28;13.68;;;2.42;;
83117;SDS011;73000;51.784;4.660;2023-12-22T03:30:54;8.80;;;2.00;;
83117;SDS011;73000;51.784;4.660;2023-12-22T03:33:19;6.20;;;1.80;;
83117;SDS011;73000;51.784;4.660;2023-12-22T03:35:44;9.48;;;1.70;;
83117;SDS011;73000;51.784;4.660;2023-12-22T03:38:10;12.90;;;2.17;;
83117;SDS011;73000;51.784;4.660;2023-12-22T03:40:35;7.68;;;2.00;;
83117;SDS011;73000;51.784;4.660;2023-12-22T03:43:03;10.00;;;2.17;;
83117;SDS011;73000;51.784;4.660;2023-12-22T03:45:29;9.07;;;2.53;;
83117;SDS011;73000;51.784;4.660;2023-12-22T03:47:56;12.20;;;2.22;;
83117;SDS011;73000;51.784;4.660;2023-12-22T03:50:25;6.63;;;2.05;;
83117;SDS011;73000;51.784;4.660;2023-12-22T03:52:50;8.70;;;2.33;;
83117;SDS011;73000;51.784;4.660;2023-12-22T03:55:18;11.75;;;1.63;;
83117;SDS011;73000;51.784;4.660;2023-12-22T03:57:45;8.77;;;2.00;;
83117;SDS011;73000;51.784;4.660;2023-12-22T04:00:13;6.25;;;2.20;;
83117;SDS011;73000;51.784;4.660;2023-12-22T04:02:41;10.35;;;2.20;;
83117;SDS011;73000;51.784;4.660;2023-12-22T04:05:07;9.93;;;2.30;;
83117;SDS011;73000;51.784;4.660;2023-12-22T04:07:32;10.50;;;1.92;;
83117;SDS011;73000;51.784;4.660;2023-12-22T04:09:58;10.25;;;2.50;;
83117;SDS011;73000;51.784;4.660;2023-12-22T04:12:25;13.00;;;2.58;;
83117;SDS011;73000;51.784;4.660;2023-12-22T04:14:54;7.68;;;2.35;;
83117;SDS011;73000;51.784;4.660;2023-12-22T04:17:19;8.63;;;2.13;;
83117;SDS011;73000;51.784;4.660;2023-12-22T04:19:45;11.77;;;2.50;;
83117;SDS011;73000;51.784;4.660;2023-12-22T04:22:10;7.60;;;2.28;;
83117;SDS011;73000;51.784;4.660;2023-12-22T04:24:38;8.73;;;2.25;;
83117;SDS011;73000;51.784;4.660;2023-12-22T04:27:05;8.20;;;2.60;;
83117;SDS011;73000;51.784;4.660;2023-12-22T04:29:31;14.38;;;2.30;;
83117;SDS011;73000;51.784;4.660;2023-12-22T04:31:57;7.95;;;1.90;;
83117;SDS011;73000;51.784;4.660;2023-12-22T04:34:22;8.68;;;2.03;;
83117;SDS011;73000;51.784;4.660;2023-12-22T04:36:48;9.43;;;1.85;;
83117;SDS011;73000;51.784;4.660;2023-12-22T04:39:16;10.43;;;2.10;;
83117;SDS011;73000;51.784;4.660;2023-12-22T04:41:42;9.52;;;2.42;;
83117;SDS011;73000;51.784;4.660;2023-12-22T04:44:07;12.80;;;3.25;;
83117;SDS011;73000;51.784;4.660;2023-12-22T04:46:35;14.05;;;3.30;;
83117;SDS011;73000;51.784;4.660;2023-12-22T04:49:00;13.00;;;2.55;;
83117;SDS011;73000;51.784;4.660;2023-12-22T04:51:26;12.82;;;3.05;;
83117;SDS011;73000;51.784;4.660;2023-12-22T04:53:52;16.95;;;3.45;;
83117;SDS011;73000;51.784;4.660;2023-12-22T04:56:17;14.95;;;2.55;;
83117;SDS011;73000;51.784;4.660;2023-12-22T04:58:43;15.88;;;3.03;;
83117;SDS011;73000;51.784;4.660;2023-12-22T05:01:08;19.33;;;3.10;;
83117;SDS011;73000;51.784;4.660;2023-12-22T05:03:51;20.95;;;4.70;;
83117;SDS011;73000;51.784;4.660;2023-12-22T05:06:16;21.70;;;3.95;;
83117;SDS011;73000;51.784;4.660;2023-12-22T05:08:42;15.10;;;3.33;;
83117;SDS011;73000;51.784;4.660;2023-12-22T05:11:07;17.20;;;3.85;;
83117;SDS011;73000;51.784;4.660;2023-12-22T05:13:32;16.55;;;3.33;;
83117;SDS011;73000;51.784;4.660;2023-12-22T05:15:58;17.73;;;3.95;;
83117;SDS011;73000;51.784;4.660;2023-12-22T05:18:23;21.25;;;4.90;;
83117;SDS011;73000;51.784;4.660;2023-12-22T05:20:49;17.27;;;3.75;;
83117;SDS011;73000;51.784;4.660;2023-12-22T05:23:15;22.25;;;4.75;;
83117;SDS011;73000;51.784;4.660;2023-12-22T05:25:41;23.15;;;5.05;;
83117;SDS011;73000;51.784;4.660;2023-12-22T05:28:06;19.98;;;4.82;;
83117;SDS011;73000;51.784;4.660;2023-12-22T05:30:32;16.77;;;5.28;;
83117;SDS011;73000;51.784;4.660;2023-12-22T05:32:57;19.65;;;3.85;;
83117;SDS011;73000;51.784;4.660;2023-12-22T05:35:23;30.55;;;5.15;;
83117;SDS011;73000;51.784;4.660;2023-12-22T05:37:48;19.38;;;4.55;;
83117;SDS011;73000;51.784;4.660;2023-12-22T05:40:14;25.60;;;5.55;;
83117;SDS011;73000;51.784;4.660;2023-12-22T05:42:39;23.02;;;4.93;;
83117;SDS011;73000;51.784;4.660;2023-12-22T05:45:06;28.45;;;4.70;;
83117;SDS011;73000;51.784;4.660;2023-12-22T05:47:32;18.48;;;4.70;;
83117;SDS011;73000;51.784;4.660;2023-12-22T05:50:01;26.00;;;5.03;;
83117;SDS011;73000;51.784;4.660;2023-12-22T05:52:30;19.90;;;4.00;;
83117;SDS011;73000;51.784;4.660;2023-12-22T05:54:56;18.17;;;4.32;;
83117;SDS011;73000;51.784;4.660;2023-12-22T05:57:24;22.85;;;4.20;;
83117;SDS011;73000;51.784;4.660;2023-12-22T05:59:51;17.77;;;4.07;;
83117;SDS011;73000;51.784;4.660;2023-12-22T06:02:17;23.70;;;4.70;;
83117;SDS011;73000;51.784;4.660;2023-12-22T06:04:43;20.77;;;4.60;;
83117;SDS011;73000;51.784;4.660;2023-12-22T06:07:09;21.48;;;4.57;;
83117;SDS011;73000;51.784;4.660;2023-12-22T06:09:36;20.17;;;3.83;;
83117;SDS011;73000;51.784;4.660;2023-12-22T06:12:02;32.85;;;5.22;;
83117;SDS011;73000;51.784;4.660;2023-12-22T06:14:28;20.80;;;5.25;;
83117;SDS011;73000;51.784;4.660;2023-12-22T06:16:54;21.98;;;5.20;;
83117;SDS011;73000;51.784;4.660;2023-12-22T06:19:22;32.03;;;5.40;;
83117;SDS011;73000;51.784;4.660;2023-12-22T06:21:50;23.63;;;5.95;;
83117;SDS011;73000;51.784;4.660;2023-12-22T06:24:16;30.65;;;4.75;;
83117;SDS011;73000;51.784;4.660;2023-12-22T06:26:42;19.77;;;4.85;;
83117;SDS011;73000;51.784;4.660;2023-12-22T06:29:08;26.45;;;4.93;;
83117;SDS011;73000;51.784;4.660;2023-12-22T06:31:34;22.95;;;4.15;;
83117;SDS011;73000;51.784;4.660;2023-12-22T06:34:00;30.08;;;5.25;;
83117;SDS011;73000;51.784;4.660;2023-12-22T06:36:27;30.55;;;5.13;;
83117;SDS011;73000;51.784;4.660;2023-12-22T06:38:55;22.10;;;4.43;;
83117;SDS011;73000;51.784;4.660;2023-12-22T06:41:21;29.02;;;5.20;;
83117;SDS011;73000;51.784;4.660;2023-12-22T06:43:47;19.35;;;4.32;;
83117;SDS011;73000;51.784;4.660;2023-12-22T06:46:17;26.45;;;5.82;;
83117;SDS011;73000;51.784;4.660;2023-12-22T06:48:47;22.98;;;5.88;;
83117;SDS011;73000;51.784;4.660;2023-12-22T06:51:17;14.45;;;4.75;;
83117;SDS011;73000;51.784;4.660;2023-12-22T06:53:50;19.35;;;4.13;;
83117;SDS011;73000;51.784;4.660;2023-12-22T06:56:26;21.02;;;4.32;;
83117;SDS011;73000;51.784;4.660;2023-12-22T06:58:53;22.35;;;3.67;;
83117;SDS011;73000;51.784;4.660;2023-12-22T07:01:23;17.50;;;3.55;;
83117;SDS011;73000;51.784;4.660;2023-12-22T07:03:50;17.77;;;4.38;;
83117;SDS011;73000;51.784;4.660;2023-12-22T07:06:16;31.90;;;4.90;;
83117;SDS011;73000;51.784;4.660;2023-12-22T07:08:42;24.42;;;4.38;;
83117;SDS011;73000;51.784;4.660;2023-12-22T07:11:11;21.70;;;4.75;;
83117;SDS011;73000;51.784;4.660;2023-12-22T07:13:37;21.27;;;4.05;;
83117;SDS011;73000;51.784;4.660;2023-12-22T07:16:03;20.33;;;4.55;;
83117;SDS011;73000;51.784;4.660;2023-12-22T07:18:30;18.20;;;4.60;;
83117;SDS011;73000;51.784;4.660;2023-12-22T07:20:58;19.73;;;3.50;;
83117;SDS011;73000;51.784;4.660;2023-12-22T07:23:24;21.13;;;4.00;;
83117;SDS011;73000;51.784;4.660;2023-12-22T07:25:50;22.02;;;4.15;;
83117;SDS011;73000;51.784;4.660;2023-12-22T07:28:16;17.85;;;3.65;;
83117;SDS011;73000;51.784;4.660;2023-12-22T07:30:42;17.83;;;3.88;;
83117;SDS011;73000;51.784;4.660;2023-12-22T07:33:07;20.35;;;3.58;;
83117;SDS011;73000;51.784;4.660;2023-12-22T07:35:33;12.80;;;2.97;;
83117;SDS011;73000;51.784;4.660;2023-12-22T07:37:59;12.27;;;3.60;;
83117;SDS011;73000;51.784;4.660;2023-12-22T07:40:25;10.88;;;3.25;;
83117;SDS011;73000;51.784;4.660;2023-12-22T07:42:51;11.02;;;3.03;;
83117;SDS011;73000;51.784;4.660;2023-12-22T07:45:17;16.00;;;4.32;;
83117;SDS011;73000;51.784;4.660;2023-12-22T07:47:42;19.17;;;3.75;;
83117;SDS011;73000;51.784;4.660;2023-12-22T07:50:07;12.70;;;3.58;;
83117;SDS011;73000;51.784;4.660;2023-12-22T07:52:34;17.80;;;3.67;;
83117;SDS011;73000;51.784;4.660;2023-12-22T07:55:05;16.02;;;3.47;;
83117;SDS011;73000;51.784;4.660;2023-12-22T07:57:35;18.20;;;3.53;;
83117;SDS011;73000;51.784;4.660;2023-12-22T08:00:01;13.95;;;3.28;;
83117;SDS011;73000;51.784;4.660;2023-12-22T08:02:26;21.00;;;4.10;;
83117;SDS011;73000;51.784;4.660;2023-12-22T08:04:52;14.27;;;2.83;;
83117;SDS011;73000;51.784;4.660;2023-12-22T08:07:18;18.25;;;3.85;;
83117;SDS011;73000;51.784;4.660;2023-12-22T08:09:43;21.10;;;3.35;;
83117;SDS011;73000;51.784;4.660;2023-12-22T08:12:09;18.48;;;3.15;;
83117;SDS011;73000;51.784;4.660;2023-12-22T08:14:34;14.82;;;3.80;;
83117;SDS011;73000;51.784;4.660;2023-12-22T08:17:00;17.40;;;3.47;;
83117;SDS011;73000;51.784;4.660;2023-12-22T08:19:25;14.32;;;3.65;;
83117;SDS011;73000;51.784;4.660;2023-12-22T08:21:54;15.40;;;3.38;;
83117;SDS011;73000;51.784;4.660;2023-12-22T08:24:19;19.77;;;3.90;;
83117;SDS011;73000;51.784;4.660;2023-12-22T08:26:45;14.55;;;2.60;;
83117;SDS011;73000;51.784;4.660;2023-12-22T08:29:11;11.35;;;2.72;;
83117;SDS011;73000;51.784;4.660;2023-12-22T08:31:36;10.93;;;2.38;;
83117;SDS011;73000;51.784;4.660;2023-12-22T08:34:02;22.92;;;4.07;;
83117;SDS011;73000;51.784;4.660;2023-12-22T08:36:27;16.35;;;3.05;;
83117;SDS011;73000;51.784;4.660;2023-12-22T08:38:53;12.68;;;3.05;;
83117;SDS011;73000;51.784;4.660;2023-12-22T08:41:18;17.15;;;2.83;;
83117;SDS011;73000;51.784;4.660;2023-12-22T08:43:44;9.05;;;2.13;;
83117;SDS011;73000;51.784;4.660;2023-12-22T08:46:09;12.68;;;2.22;;
83117;SDS011;73000;51.784;4.660;2023-12-22T08:48:35;12.98;;;2.58;;
83117;SDS011;73000;51.784;4.660;2023-12-22T08:51:00;9.13;;;2.50;;
83117;SDS011;73000;51.784;4.660;2023-12-22T08:53:25;7.40;;;2.20;;
83117;SDS011;73000;51.784;4.660;2023-12-22T08:55:51;10.45;;;3.45;;
83117;SDS011;73000;51.784;4.660;2023-12-22T08:58:19;5.45;;;2.20;;
83117;SDS011;73000;51.784;4.660;2023-12-22T09:03:10;10.47;;;2.17;;
83117;SDS011;73000;51.784;4.660;2023-12-22T09:05:35;12.80;;;3.05;;
83117;SDS011;73000;51.784;4.660;2023-12-22T09:08:01;7.75;;;1.85;;
83117;SDS011;73000;51.784;4.660;2023-12-22T09:10:27;5.18;;;1.85;;
83117;SDS011;73000;51.784;4.660;2023-12-22T09:12:52;11.00;;;2.17;;
83117;SDS011;73000;51.784;4.660;2023-12-22T09:15:18;16.02;;;3.15;;
83117;SDS011;73000;51.784;4.660;2023-12-22T09:17:43;4.18;;;2.03;;
83117;SDS011;73000;51.784;4.660;2023-12-22T09:20:09;10.40;;;1.98;;
83117;SDS011;73000;51.784;4.660;2023-12-22T09:22:35;6.13;;;2.17;;
83117;SDS011;73000;51.784;4.660;2023-12-22T09:25:00;5.20;;;1.80;;
83117;SDS011;73000;51.784;4.660;2023-12-22T09:27:26;6.13;;;1.92;;
83117;SDS011;73000;51.784;4.660;2023-12-22T09:29:55;9.57;;;2.03;;
83117;SDS011;73000;51.784;4.660;2023-12-22T09:32:20;9.98;;;2.33;;
83117;SDS011;73000;51.784;4.660;2023-12-22T09:34:46;7.50;;;1.70;;
83117;SDS011;73000;51.784;4.660;2023-12-22T09:37:11;12.25;;;2.47;;
83117;SDS011;73000;51.784;4.660;2023-12-22T09:39:37;7.95;;;2.00;;
83117;SDS011;73000;51.784;4.660;2023-12-22T09:42:02;6.45;;;2.30;;
83117;SDS011;73000;51.784;4.660;2023-12-22T09:44:29;8.90;;;2.22;;
83117;SDS011;73000;51.784;4.660;2023-12-22T09:46:58;6.80;;;2.53;;
83117;SDS011;73000;51.784;4.660;2023-12-22T09:49:24;11.40;;;2.72;;
83117;SDS011;73000;51.784;4.660;2023-12-22T09:51:51;8.50;;;2.92;;
83117;SDS011;73000;51.784;4.660;2023-12-22T09:54:18;9.43;;;3.00;;
83117;SDS011;73000;51.784;4.660;2023-12-22T09:56:44;5.85;;;2.15;;
83117;SDS011;73000;51.784;4.660;2023-12-22T09:59:12;6.32;;;2.92;;
83117;SDS011;73000;51.784;4.660;2023-12-22T10:01:42;6.15;;;3.10;;
83117;SDS011;73000;51.784;4.660;2023-12-22T10:04:11;6.07;;;2.22;;
83117;SDS011;73000;51.784;4.660;2023-12-22T10:06:37;8.13;;;2.78;;
83117;SDS011;73000;51.784;4.660;2023-12-22T10:09:03;5.20;;;2.40;;
83117;SDS011;73000;51.784;4.660;2023-12-22T10:11:32;7.38;;;2.28;;
83117;SDS011;73000;51.784;4.660;2023-12-22T10:13:59;8.25;;;2.78;;
83117;SDS011;73000;51.784;4.660;2023-12-22T10:16:27;7.07;;;1.92;;
83117;SDS011;73000;51.784;4.660;2023-12-22T10:18:53;9.35;;;2.30;;
83117;SDS011;73000;51.784;4.660;2023-12-22T10:21:18;8.68;;;2.40;;
83117;SDS011;73000;51.784;4.660;2023-12-22T10:23:44;9.90;;;2.35;;
83117;SDS011;73000;51.784;4.660;2023-12-22T10:26:12;6.70;;;2.40;;
83117;SDS011;73000;51.784;4.660;2023-12-22T10:28:38;7.25;;;2.30;;
83117;SDS011;73000;51.784;4.660;2023-12-22T10:31:03;10.80;;;2.90;;
83117;SDS011;73000;51.784;4.660;2023-12-22T10:33:32;5.15;;;2.10;;
83117;SDS011;73000;51.784;4.660;2023-12-22T10:35:58;5.95;;;2.15;;
83117;SDS011;73000;51.784;4.660;2023-12-22T10:38:25;5.93;;;2.30;;
83117;SDS011;73000;51.784;4.660;2023-12-22T10:40:51;6.68;;;1.90;;
83117;SDS011;73000;51.784;4.660;2023-12-22T10:43:17;6.75;;;2.00;;
83117;SDS011;73000;51.784;4.660;2023-12-22T10:45:42;6.90;;;2.45;;
83117;SDS011;73000;51.784;4.660;2023-12-22T10:48:08;8.90;;;2.40;;
83117;SDS011;73000;51.784;4.660;2023-12-22T10:50:33;8.35;;;2.38;;
83117;SDS011;73000;51.784;4.660;2023-12-22T10:52:58;7.38;;;2.78;;
83117;SDS011;73000;51.784;4.660;2023-12-22T10:55:26;11.20;;;2.75;;
83117;SDS011;73000;51.784;4.660;2023-12-22T10:57:52;4.50;;;2.10;;
83117;SDS011;73000;51.784;4.660;2023-12-22T11:00:19;5.93;;;2.22;;
83117;SDS011;73000;51.784;4.660;2023-12-22T11:02:47;7.32;;;2.10;;
83117;SDS011;73000;51.784;4.660;2023-12-22T11:05:13;7.30;;;2.17;;
83117;SDS011;73000;51.784;4.660;2023-12-22T11:07:42;11.02;;;2.40;;
83117;SDS011;73000;51.784;4.660;2023-12-22T11:10:13;9.52;;;2.22;;
83117;SDS011;73000;51.784;4.660;2023-12-22T11:12:43;11.98;;;2.78;;
83117;SDS011;73000;51.784;4.660;2023-12-22T11:15:12;8.65;;;2.67;;
83117;SDS011;73000;51.784;4.660;2023-12-22T11:17:39;9.35;;;3.10;;
83117;SDS011;73000;51.784;4.660;2023-12-22T11:20:10;8.68;;;3.60;;
83117;SDS011;73000;51.784;4.660;2023-12-22T11:22:38;4.60;;;2.30;;
83117;SDS011;73000;51.784;4.660;2023-12-22T11:25:05;7.45;;;2.03;;
83117;SDS011;73000;51.784;4.660;2023-12-22T11:27:33;6.40;;;2.50;;
83117;SDS011;73000;51.784;4.660;2023-12-22T11:30:01;9.75;;;2.97;;
83117;SDS011;73000;51.784;4.660;2023-12-22T11:32:29;12.55;;;2.47;;
83117;SDS011;73000;51.784;4.660;2023-12-22T11:34:59;9.50;;;2.40;;
83117;SDS011;73000;51.784;4.660;2023-12-22T11:37:25;10.07;;;3.17;;
83117;SDS011;73000;51.784;4.660;2023-12-22T11:39:51;8.38;;;2.97;;
83117;SDS011;73000;51.784;4.660;2023-12-22T11:42:19;10.02;;;2.10;;
83117;SDS011;73000;51.784;4.660;2023-12-22T11:44:50;5.68;;;2.70;;
83117;SDS011;73000;51.784;4.660;2023-12-22T11:47:17;10.95;;;2.70;;
83117;SDS011;73000;51.784;4.660;2023-12-22T11:49:48;15.07;;;4.68;;
83117;SDS011;73000;51.784;4.660;2023-12-22T11:52:17;7.40;;;1.85;;
83117;SDS011;73000;51.784;4.660;2023-12-22T11:54:48;12.70;;;4.65;;
83117;SDS011;73000;51.784;4.660;2023-12-22T12:02:53;8.38;;;2.35;;
83117;SDS011;73000;51.784;4.660;2023-12-22T12:05:20;6.88;;;2.25;;
83117;SDS011;73000;51.784;4.660;2023-12-22T12:07:47;5.30;;;1.70;;
83117;SDS011;73000;51.784;4.660;2023-12-22T12:15:33;10.82;;;2.20;;
83117;SDS011;73000;51.784;4.660;2023-12-22T12:18:00;7.43;;;1.95;;
83117;SDS011;73000;51.784;4.660;2023-12-22T12:20:25;8.02;;;2.00;;
83117;SDS011;73000;51.784;4.660;2023-12-22T12:22:52;8.88;;;2.45;;
83117;SDS011;73000;51.784;4.660;2023-12-22T12:25:27;10.60;;;2.25;;
83117;SDS011;73000;51.784;4.660;2023-12-22T12:28:06;7.47;;;2.53;;
83117;SDS011;73000;51.784;4.660;2023-12-22T12:30:36;13.98;;;2.92;;
83117;SDS011;73000;51.784;4.660;2023-12-22T12:33:07;11.25;;;2.65;;
83117;SDS011;73000;51.784;4.660;2023-12-22T12:35:35;5.25;;;2.40;;
83117;SDS011;73000;51.784;4.660;2023-12-22T12:38:05;6.13;;;2.58;;
83117;SDS011;73000;51.784;4.660;2023-12-22T12:40:31;6.05;;;2.53;;
83117;SDS011;73000;51.784;4.660;2023-12-22T12:43:00;11.65;;;2.78;;
83117;SDS011;73000;51.784;4.660;2023-12-22T12:45:26;8.95;;;2.38;;
83117;SDS011;73000;51.784;4.660;2023-12-22T12:48:00;11.68;;;2.40;;
83117;SDS011;73000;51.784;4.660;2023-12-22T12:50:28;9.98;;;2.25;;
83117;SDS011;73000;51.784;4.660;2023-12-22T12:52:56;11.48;;;2.65;;
83117;SDS011;73000;51.784;4.660;2023-12-22T12:55:23;7.10;;;3.50;;
83117;SDS011;73000;51.784;4.660;2023-12-22T12:57:53;9.68;;;2.13;;
83117;SDS011;73000;51.784;4.660;2023-12-22T13:00:27;9.55;;;2.63;;
83117;SDS011;73000;51.784;4.660;2023-12-22T13:03:00;7.18;;;3.05;;
83117;SDS011;73000;51.784;4.660;2023-12-22T13:05:29;10.80;;;2.40;;
83117;SDS011;73000;51.784;4.660;2023-12-22T13:08:11;14.88;;;2.63;;
83117;SDS011;73000;51.784;4.660;2023-12-22T13:10:38;6.25;;;2.20;;
83117;SDS011;73000;51.784;4.660;2023-12-22T13:13:04;9.63;;;2.65;;
83117;SDS011;73000;51.784;4.660;2023-12-22T13:15:30;8.82;;;2.63;;
83117;SDS011;73000;51.784;4.660;2023-12-22T13:17:56;6.55;;;2.30;;
83117;SDS011;73000;51.784;4.660;2023-12-22T13:20:22;8.75;;;2.25;;
83117;SDS011;73000;51.784;4.660;2023-12-22T13:22:48;12.27;;;2.85;;
83117;SDS011;73000;51.784;4.660;2023-12-22T13:25:14;10.07;;;3.22;;
83117;SDS011;73000;51.784;4.660;2023-12-22T13:27:46;9.05;;;2.22;;
83117;SDS011;73000;51.784;4.660;2023-12-22T13:30:13;13.48;;;2.35;;
83117;SDS011;73000;51.784;4.660;2023-12-22T13:32:40;8.20;;;2.58;;
83117;SDS011;73000;51.784;4.660;2023-12-22T13:35:05;9.38;;;2.80;;
83117;SDS011;73000;51.784;4.660;2023-12-22T13:37:31;10.45;;;2.35;;
83117;SDS011;73000;51.784;4.660;2023-12-22T13:39:58;8.38;;;2.45;;
83117;SDS011;73000;51.784;4.660;2023-12-22T13:42:25;7.13;;;2.42;;
83117;SDS011;73000;51.784;4.660;2023-12-22T13:44:51;9.93;;;2.47;;
83117;SDS011;73000;51.784;4.660;2023-12-22T13:47:17;11.45;;;2.72;;
83117;SDS011;73000;51.784;4.660;2023-12-22T13:49:44;4.80;;;2.38;;
83117;SDS011;73000;51.784;4.660;2023-12-22T13:52:26;16.48;;;4.45;;
83117;SDS011;73000;51.784;4.660;2023-12-22T13:55:00;9.00;;;1.95;;
83117;SDS011;73000;51.784;4.660;2023-12-22T13:57:28;7.72;;;2.67;;
83117;SDS011;73000;51.784;4.660;2023-12-22T13:59:54;11.55;;;2.45;;
83117;SDS011;73000;51.784;4.660;2023-12-22T14:02:21;13.52;;;2.65;;
83117;SDS011;73000;51.784;4.660;2023-12-22T14:04:48;11.45;;;3.20;;
83117;SDS011;73000;51.784;4.660;2023-12-22T14:07:15;10.38;;;2.55;;
83117;SDS011;73000;51.784;4.660;2023-12-22T14:09:40;11.00;;;2.40;;
83117;SDS011;73000;51.784;4.660;2023-12-22T14:12:06;16.88;;;3.08;;
83117;SDS011;73000;51.784;4.660;2023-12-22T14:14:32;11.65;;;4.45;;
83117;SDS011;73000;51.784;4.660;2023-12-22T14:16:58;12.80;;;3.88;;
83117;SDS011;73000;51.784;4.660;2023-12-22T14:19:23;13.82;;;2.67;;
83117;SDS011;73000;51.784;4.660;2023-12-22T14:21:48;8.23;;;2.22;;
83117;SDS011;73000;51.784;4.660;2023-12-22T14:24:14;11.50;;;2.85;;
83117;SDS011;73000;51.784;4.660;2023-12-22T14:26:55;11.93;;;2.67;;
83117;SDS011;73000;51.784;4.660;2023-12-22T14:29:21;9.85;;;2.40;;
83117;SDS011;73000;51.784;4.660;2023-12-22T14:31:50;9.23;;;2.85;;
83117;SDS011;73000;51.784;4.660;2023-12-22T14:34:16;14.48;;;3.00;;
83117;SDS011;73000;51.784;4.660;2023-12-22T14:36:43;12.85;;;2.95;;
83117;SDS011;73000;51.784;4.660;2023-12-22T14:39:10;10.32;;;2.10;;
83117;SDS011;73000;51.784;4.660;2023-12-22T14:44:03;7.53;;;2.88;;
83117;SDS011;73000;51.784;4.660;2023-12-22T14:46:29;11.52;;;2.40;;
83117;SDS011;73000;51.784;4.660;2023-12-22T14:48:55;7.20;;;3.17;;
83117;SDS011;73000;51.784;4.660;2023-12-22T14:51:21;12.52;;;2.78;;
83117;SDS011;73000;51.784;4.660;2023-12-22T14:53:46;9.13;;;2.40;;
83117;SDS011;73000;51.784;4.660;2023-12-22T14:56:13;13.60;;;3.50;;
83117;SDS011;73000;51.784;4.660;2023-12-22T14:58:38;13.25;;;2.70;;
83117;SDS011;73000;51.784;4.660;2023-12-22T15:01:04;13.88;;;3.42;;